»·PEaware :: N618BD KRDD-KMFR

N618BD :: KRDD-KMFR

FLIGHT INFORMATION

Flight Status: Arrived
Operator: Privately registered:
United States
More flights under this callsign
Pilot: Anonymous 27579 (27579)
Aircraft: CESSNA 172 SKYHAWK
(C172)
More flights by this aircraft type
Origin: KRDD Redding Mun
United States
Destination: KMFR Rogue Valley Intl-Medford
United States
More flights between these airports :: More routes between these airports
Route: +V23 FJS LIPWO
File this flight plan on PilotEdge
Remarks:
Altitude:
(Current/Filed)
6,000ft
Speed:
(Current/Filed)
110kts
Departed: 20-Sep-20 01:35 PM
Arrived: 20-Sep-20 03:02 PM
Distance/Time
Traveled:
115nm/1:26
Distance/Time
To Go:
Arrived

Flight Plot

Page will automatically refresh every two minutes.

Flight plan parsing failed; only flown route is shown


Map Options




Map Legend


Flown Route
Filed Route
Departure Airport
Arrival Airport
Navaid (VOR, NDB)
Fix

Horizontal Profiles

Position Reports

Time Latitude Longitude Heading Altitude Ground
Speed
20-Sep-20 13:15 40.505880 -122.299066 315 494ft 0kts
20-Sep-20 13:16 40.505880 -122.299066 315 494ft 0kts
20-Sep-20 13:17 40.505880 -122.299066 315 494ft 0kts
20-Sep-20 13:18 40.505880 -122.299066 315 494ft 0kts
20-Sep-20 13:19 40.505880 -122.299066 315 494ft 0kts
20-Sep-20 13:20 40.505880 -122.299066 315 494ft 0kts
20-Sep-20 13:21 40.505880 -122.299066 315 494ft 0kts
20-Sep-20 13:22 40.505880 -122.299066 315 494ft 0kts
20-Sep-20 13:23 40.505880 -122.299066 315 494ft 0kts
20-Sep-20 13:24 40.505925 -122.299072 1 494ft 0kts
20-Sep-20 13:25 40.505941 -122.299072 359 494ft 0kts
20-Sep-20 13:26 40.505941 -122.299072 359 494ft 0kts
20-Sep-20 13:27 40.508215 -122.298090 49 496ft 10kts
20-Sep-20 13:28 40.510421 -122.296310 1 496ft 17kts
20-Sep-20 13:29 40.517251 -122.296288 0 502ft 21kts
20-Sep-20 13:30 40.519933 -122.296256 8 502ft 0kts
20-Sep-20 13:31 40.520101 -122.296178 32 502ft 9kts
20-Sep-20 13:32 40.520233 -122.296002 66 502ft 0kts
20-Sep-20 13:33 40.520233 -122.296002 66 502ft 0kts
20-Sep-20 13:34 40.516497 -122.294833 182 511ft 71kts
20-Sep-20 13:35 40.500158 -122.279449 130 1442ft 79kts
20-Sep-20 13:36 40.484719 -122.258281 124 2369ft 81kts
20-Sep-20 13:37 40.469950 -122.233358 130 3155ft 92kts
20-Sep-20 13:38 40.452920 -122.206143 129 3861ft 99kts
20-Sep-20 13:39 40.432121 -122.187834 210 4552ft 99kts
20-Sep-20 13:40 40.430459 -122.222196 280 5250ft 103kts
20-Sep-20 13:41 40.440588 -122.256355 309 5946ft 103kts
20-Sep-20 13:42 40.462434 -122.290338 310 5952ft 132kts
20-Sep-20 13:43 40.486398 -122.327677 310 5951ft 134kts
20-Sep-20 13:44 40.510298 -122.365049 310 5951ft 134kts
20-Sep-20 13:45 40.534265 -122.402655 310 5951ft 134kts
20-Sep-20 13:46 40.563366 -122.430434 349 5950ft 134kts
20-Sep-20 13:47 40.600157 -122.437422 352 5951ft 134kts
20-Sep-20 13:48 40.636503 -122.446651 330 5952ft 133kts
20-Sep-20 13:49 40.668559 -122.471360 340 5951ft 134kts
20-Sep-20 13:50 40.703812 -122.486821 342 5951ft 134kts
20-Sep-20 13:51 40.739272 -122.502008 342 5951ft 134kts
20-Sep-20 13:52 40.774677 -122.517153 342 5951ft 134kts
20-Sep-20 13:53 40.810039 -122.532292 342 5975ft 133kts
20-Sep-20 13:54 40.845433 -122.547457 342 5974ft 134kts
20-Sep-20 13:55 40.880868 -122.562658 342 5974ft 134kts
20-Sep-20 13:56 40.916188 -122.577827 342 5974ft 134kts
20-Sep-20 13:57 40.949886 -122.598303 327 5975ft 134kts
20-Sep-20 13:58 40.981146 -122.624768 329 5974ft 134kts
20-Sep-20 13:59 41.013440 -122.649607 330 5974ft 134kts
20-Sep-20 14:00 41.045717 -122.674058 334 5974ft 134kts
20-Sep-20 14:01 41.080050 -122.693537 338 5974ft 134kts
20-Sep-20 14:02 41.114883 -122.710849 342 5974ft 134kts
20-Sep-20 14:03 41.150574 -122.724803 343 5974ft 134kts
20-Sep-20 14:04 41.184848 -122.742441 315 6061ft 128kts
20-Sep-20 14:05 41.203519 -122.774167 260 6682ft 112kts
20-Sep-20 14:06 41.195517 -122.809357 269 7415ft 103kts
20-Sep-20 14:07 41.221633 -122.814046 14 7173ft 149kts
20-Sep-20 14:08 41.263178 -122.816616 353 6357ft 150kts
20-Sep-20 14:09 41.302905 -122.819847 356 6086ft 140kts
20-Sep-20 14:10 41.340784 -122.825248 351 6035ft 134kts
20-Sep-20 14:11 41.377813 -122.830019 355 6035ft 134kts
20-Sep-20 14:12 41.414915 -122.833653 356 6035ft 134kts
20-Sep-20 14:13 41.452010 -122.833281 0 6107ft 129kts
20-Sep-20 14:14 41.484863 -122.832798 0 6693ft 112kts
20-Sep-20 14:15 41.515298 -122.832431 0 7289ft 108kts
20-Sep-20 14:16 41.545055 -122.832137 360 7888ft 106kts
20-Sep-20 14:17 41.574121 -122.831921 359 8485ft 103kts
20-Sep-20 14:18 41.602517 -122.831762 359 9082ft 101kts
20-Sep-20 14:19 41.629858 -122.828359 6 9676ft 97kts
20-Sep-20 14:20 41.656342 -122.826422 359 10271ft 93kts
20-Sep-20 14:21 41.688115 -122.827193 357 10256ft 125kts
20-Sep-20 14:22 41.723543 -122.829313 356 10255ft 128kts
20-Sep-20 14:23 41.759050 -122.831819 356 10255ft 127kts
20-Sep-20 14:24 41.794520 -122.834417 356 10255ft 127kts
20-Sep-20 14:25 41.829995 -122.837028 356 10255ft 127kts
20-Sep-20 14:26 41.865457 -122.839654 356 10255ft 128kts
20-Sep-20 14:27 41.900805 -122.842950 347 10255ft 127kts
20-Sep-20 14:28 41.935652 -122.851951 349 10255ft 128kts
20-Sep-20 14:29 41.970748 -122.860117 349 10255ft 128kts
20-Sep-20 14:30 42.005652 -122.868217 349 10255ft 128kts
20-Sep-20 14:31 42.039678 -122.881396 338 10255ft 128kts
20-Sep-20 14:32 42.072907 -122.898567 338 10255ft 128kts
20-Sep-20 14:33 42.105956 -122.915729 338 10255ft 128kts
20-Sep-20 14:34 42.139098 -122.933024 338 10255ft 128kts
20-Sep-20 14:35 42.172286 -122.950427 338 10255ft 128kts
20-Sep-20 14:36 42.205317 -122.967832 338 10255ft 128kts
20-Sep-20 14:37 42.238493 -122.985399 338 10255ft 128kts
20-Sep-20 14:38 42.272527 -123.003507 338 9981ft 141kts
20-Sep-20 14:39 42.309916 -123.023487 338 9383ft 146kts
20-Sep-20 14:40 42.347785 -123.043821 338 8783ft 147kts
20-Sep-20 14:41 42.385593 -123.064228 338 8184ft 147kts
20-Sep-20 14:42 42.422019 -123.083992 337 8017ft 134kts
20-Sep-20 14:43 42.456407 -123.102747 337 8018ft 133kts
20-Sep-20 14:44 42.490824 -123.120475 347 8017ft 133kts
20-Sep-20 14:46 42.527066 -123.131056 347 8018ft 133kts
20-Sep-20 14:47 42.563108 -123.141571 347 8018ft 133kts
20-Sep-20 14:48 42.599327 -123.152221 347 8018ft 133kts
20-Sep-20 14:49 42.632205 -123.137041 34 8018ft 133kts
20-Sep-20 14:50 42.662683 -123.107994 36 8018ft 133kts
20-Sep-20 14:51 42.685303 -123.076635 93 7881ft 120kts
20-Sep-20 14:52 42.669461 -123.034696 127 7386ft 128kts
20-Sep-20 14:53 42.640834 -123.008446 160 6924ft 122kts
20-Sep-20 14:54 42.608520 -122.998135 165 6372ft 119kts
20-Sep-20 14:55 42.576874 -122.982052 158 5462ft 130kts
20-Sep-20 14:56 42.546304 -122.961965 163 4693ft 122kts
20-Sep-20 14:57 42.514728 -122.947528 160 4180ft 124kts
20-Sep-20 14:58 42.481471 -122.928490 156 3422ft 137kts
20-Sep-20 14:59 42.445504 -122.912331 150 2552ft 136kts
20-Sep-20 15:00 42.411991 -122.892733 158 1923ft 131kts
20-Sep-20 15:01 42.389258 -122.880824 158 1393ft 58kts
20-Sep-20 15:01 42.380480 -122.876704 230 1303ft 22kts
20-Sep-20 15:03 42.378878 -122.878590 259 1305ft 0kts

Navigation Log

Ident Type
Flight plan parsing failed, navigation log unavailable